sensor_id;sensor_type;location;lat;lon;timestamp;pressure;altitude;pressure_sealevel;temperature;humidity
64933;BME280;51446;53.850;10.662;2023-02-17T00:00:21;101538.94;;;7.01;100.00
64933;BME280;51446;53.850;10.662;2023-02-17T00:02:46;101544.09;;;7.00;100.00
64933;BME280;51446;53.850;10.662;2023-02-17T00:05:11;101541.09;;;6.90;100.00
64933;BME280;51446;53.850;10.662;2023-02-17T00:07:36;101537.69;;;6.91;100.00
64933;BME280;51446;53.850;10.662;2023-02-17T00:10:02;101532.84;;;7.01;100.00
64933;BME280;51446;53.850;10.662;2023-02-17T00:12:27;101524.09;;;6.99;100.00
64933;BME280;51446;53.850;10.662;2023-02-17T00:14:52;101517.94;;;6.98;100.00
64933;BME280;51446;53.850;10.662;2023-02-17T00:17:18;101523.97;;;6.97;100.00
64933;BME280;51446;53.850;10.662;2023-02-17T00:19:43;101514.66;;;7.02;100.00
64933;BME280;51446;53.850;10.662;2023-02-17T00:22:08;101516.44;;;7.03;100.00
64933;BME280;51446;53.850;10.662;2023-02-17T00:24:36;101522.66;;;7.07;100.00
64933;BME280;51446;53.850;10.662;2023-02-17T00:27:04;101518.28;;;7.27;100.00
64933;BME280;51446;53.850;10.662;2023-02-17T00:29:29;101520.13;;;7.08;100.00
64933;BME280;51446;53.850;10.662;2023-02-17T00:31:55;101513.63;;;7.20;100.00
64933;BME280;51446;53.850;10.662;2023-02-17T00:34:20;101516.06;;;7.15;100.00
64933;BME280;51446;53.850;10.662;2023-02-17T00:36:46;101517.91;;;7.18;100.00
64933;BME280;51446;53.850;10.662;2023-02-17T00:39:13;101510.16;;;7.19;100.00
64933;BME280;51446;53.850;10.662;2023-02-17T00:41:38;101505.41;;;7.32;100.00
64933;BME280;51446;53.850;10.662;2023-02-17T00:44:04;101503.72;;;7.32;100.00
64933;BME280;51446;53.850;10.662;2023-02-17T00:46:29;101491.13;;;7.22;100.00
64933;BME280;51446;53.850;10.662;2023-02-17T00:48:55;101493.59;;;7.19;100.00
64933;BME280;51446;53.850;10.662;2023-02-17T00:51:21;101494.03;;;7.29;100.00
64933;BME280;51446;53.850;10.662;2023-02-17T00:53:46;101490.78;;;7.14;100.00
64933;BME280;51446;53.850;10.662;2023-02-17T00:56:12;101474.38;;;7.17;100.00
64933;BME280;51446;53.850;10.662;2023-02-17T00:58:38;101486.03;;;7.25;100.00
64933;BME280;51446;53.850;10.662;2023-02-17T01:01:06;101485.06;;;7.23;100.00
64933;BME280;51446;53.850;10.662;2023-02-17T01:03:32;101477.75;;;7.35;100.00
64933;BME280;51446;53.850;10.662;2023-02-17T01:05:58;101475.59;;;7.25;100.00
64933;BME280;51446;53.850;10.662;2023-02-17T01:08:24;101472.22;;;7.27;100.00
64933;BME280;51446;53.850;10.662;2023-02-17T01:10:51;101465.97;;;7.24;100.00
64933;BME280;51446;53.850;10.662;2023-02-17T01:13:17;101463.44;;;7.25;100.00
64933;BME280;51446;53.850;10.662;2023-02-17T01:15:45;101452.53;;;7.36;100.00
64933;BME280;51446;53.850;10.662;2023-02-17T01:18:11;101448.34;;;7.39;100.00
64933;BME280;51446;53.850;10.662;2023-02-17T01:20:37;101443.72;;;7.32;100.00
64933;BME280;51446;53.850;10.662;2023-02-17T01:23:04;101441.22;;;7.35;100.00
64933;BME280;51446;53.850;10.662;2023-02-17T01:25:29;101438.63;;;7.35;100.00
64933;BME280;51446;53.850;10.662;2023-02-17T01:27:54;101443.66;;;7.31;100.00
64933;BME280;51446;53.850;10.662;2023-02-17T01:30:20;101440.81;;;7.47;100.00
64933;BME280;51446;53.850;10.662;2023-02-17T01:32:45;101427.22;;;7.33;100.00
64933;BME280;51446;53.850;10.662;2023-02-17T01:35:10;101430.63;;;7.31;100.00
64933;BME280;51446;53.850;10.662;2023-02-17T01:37:36;101418.72;;;7.39;100.00
64933;BME280;51446;53.850;10.662;2023-02-17T01:40:01;101419.00;;;7.45;100.00
64933;BME280;51446;53.850;10.662;2023-02-17T01:42:27;101411.94;;;7.42;100.00
64933;BME280;51446;53.850;10.662;2023-02-17T01:45:32;101400.72;;;7.45;100.00
64933;BME280;51446;53.850;10.662;2023-02-17T01:48:08;101401.50;;;7.42;100.00
64933;BME280;51446;53.850;10.662;2023-02-17T01:50:41;101395.19;;;7.37;100.00
64933;BME280;51446;53.850;10.662;2023-02-17T01:53:10;101397.09;;;7.41;100.00
64933;BME280;51446;53.850;10.662;2023-02-17T01:55:39;101386.66;;;7.41;100.00
64933;BME280;51446;53.850;10.662;2023-02-17T01:58:08;101382.94;;;7.35;100.00
64933;BME280;51446;53.850;10.662;2023-02-17T02:00:35;101381.31;;;7.38;100.00
64933;BME280;51446;53.850;10.662;2023-02-17T02:03:01;101363.00;;;7.37;100.00
64933;BME280;51446;53.850;10.662;2023-02-17T02:05:28;101357.41;;;7.50;100.00
64933;BME280;51446;53.850;10.662;2023-02-17T02:07:54;101354.34;;;7.38;100.00
64933;BME280;51446;53.850;10.662;2023-02-17T02:10:19;101354.56;;;7.44;100.00
64933;BME280;51446;53.850;10.662;2023-02-17T02:12:44;101357.53;;;7.53;100.00
64933;BME280;51446;53.850;10.662;2023-02-17T02:15:15;101342.34;;;7.43;100.00
64933;BME280;51446;53.850;10.662;2023-02-17T02:20:41;101325.06;;;7.45;100.00
64933;BME280;51446;53.850;10.662;2023-02-17T02:26:19;101318.44;;;7.55;100.00
64933;BME280;51446;53.850;10.662;2023-02-17T02:32:06;101305.94;;;7.46;100.00
64933;BME280;51446;53.850;10.662;2023-02-17T02:34:46;101305.59;;;7.37;100.00
64933;BME280;51446;53.850;10.662;2023-02-17T02:37:17;101307.78;;;7.49;100.00
64933;BME280;51446;53.850;10.662;2023-02-17T02:39:47;101304.22;;;7.46;100.00
64933;BME280;51446;53.850;10.662;2023-02-17T02:42:19;101308.69;;;7.49;100.00
64933;BME280;51446;53.850;10.662;2023-02-17T02:44:46;101302.72;;;7.53;100.00
64933;BME280;51446;53.850;10.662;2023-02-17T02:47:41;101304.00;;;7.64;100.00
64933;BME280;51446;53.850;10.662;2023-02-17T02:50:09;101293.56;;;7.64;100.00
64933;BME280;51446;53.850;10.662;2023-02-17T02:52:56;101291.72;;;7.62;100.00
64933;BME280;51446;53.850;10.662;2023-02-17T02:55:26;101286.28;;;7.56;100.00
64933;BME280;51446;53.850;10.662;2023-02-17T02:58:12;101283.56;;;7.53;100.00
64933;BME280;51446;53.850;10.662;2023-02-17T03:00:58;101276.34;;;7.70;100.00
64933;BME280;51446;53.850;10.662;2023-02-17T03:05:58;101260.75;;;7.71;100.00
64933;BME280;51446;53.850;10.662;2023-02-17T03:08:37;101261.34;;;7.64;100.00
64933;BME280;51446;53.850;10.662;2023-02-17T03:11:04;101262.47;;;7.71;100.00
64933;BME280;51446;53.850;10.662;2023-02-17T03:13:32;101256.75;;;7.81;100.00
64933;BME280;51446;53.850;10.662;2023-02-17T03:15:57;101255.69;;;7.76;100.00
64933;BME280;51446;53.850;10.662;2023-02-17T03:18:23;101252.38;;;7.81;100.00
64933;BME280;51446;53.850;10.662;2023-02-17T03:20:52;101243.41;;;7.73;100.00
64933;BME280;51446;53.850;10.662;2023-02-17T03:23:18;101237.19;;;7.70;100.00
64933;BME280;51446;53.850;10.662;2023-02-17T03:25:43;101247.13;;;7.80;100.00
64933;BME280;51446;53.850;10.662;2023-02-17T03:28:09;101242.00;;;7.83;100.00
64933;BME280;51446;53.850;10.662;2023-02-17T03:30:34;101236.94;;;7.88;100.00
64933;BME280;51446;53.850;10.662;2023-02-17T03:33:00;101238.97;;;7.96;100.00
64933;BME280;51446;53.850;10.662;2023-02-17T03:35:25;101233.88;;;7.99;100.00
64933;BME280;51446;53.850;10.662;2023-02-17T03:37:50;101240.13;;;8.05;100.00
64933;BME280;51446;53.850;10.662;2023-02-17T03:40:16;101234.69;;;7.98;100.00
64933;BME280;51446;53.850;10.662;2023-02-17T03:42:41;101234.69;;;7.98;100.00
64933;BME280;51446;53.850;10.662;2023-02-17T03:45:07;101235.66;;;8.02;100.00
64933;BME280;51446;53.850;10.662;2023-02-17T03:47:32;101238.47;;;8.07;100.00
64933;BME280;51446;53.850;10.662;2023-02-17T03:49:57;101241.84;;;8.04;100.00
64933;BME280;51446;53.850;10.662;2023-02-17T03:52:22;101231.66;;;8.12;100.00
64933;BME280;51446;53.850;10.662;2023-02-17T03:54:48;101233.38;;;8.11;100.00
64933;BME280;51446;53.850;10.662;2023-02-17T03:57:13;101229.09;;;8.13;100.00
64933;BME280;51446;53.850;10.662;2023-02-17T03:59:38;101235.31;;;8.17;100.00
64933;BME280;51446;53.850;10.662;2023-02-17T04:02:03;101225.84;;;8.21;100.00
64933;BME280;51446;53.850;10.662;2023-02-17T04:04:29;101239.59;;;8.15;100.00
64933;BME280;51446;53.850;10.662;2023-02-17T04:06:54;101245.66;;;8.14;100.00
64933;BME280;51446;53.850;10.662;2023-02-17T04:09:19;101232.38;;;8.08;100.00
64933;BME280;51446;53.850;10.662;2023-02-17T04:11:44;101235.16;;;8.12;100.00
64933;BME280;51446;53.850;10.662;2023-02-17T04:14:10;101223.19;;;8.19;100.00
64933;BME280;51446;53.850;10.662;2023-02-17T04:16:35;101228.31;;;8.16;100.00
64933;BME280;51446;53.850;10.662;2023-02-17T04:19:04;101226.44;;;8.12;100.00
64933;BME280;51446;53.850;10.662;2023-02-17T04:21:29;101222.34;;;8.20;100.00
64933;BME280;51446;53.850;10.662;2023-02-17T04:23:55;101218.22;;;8.27;100.00
64933;BME280;51446;53.850;10.662;2023-02-17T04:26:20;101213.56;;;8.18;100.00
64933;BME280;51446;53.850;10.662;2023-02-17T04:28:46;101217.31;;;8.26;100.00
64933;BME280;51446;53.850;10.662;2023-02-17T04:31:11;101205.88;;;8.23;100.00
64933;BME280;51446;53.850;10.662;2023-02-17T04:33:36;101211.25;;;8.27;100.00
64933;BME280;51446;53.850;10.662;2023-02-17T04:36:02;101213.03;;;8.28;100.00
64933;BME280;51446;53.850;10.662;2023-02-17T04:38:29;101214.69;;;8.26;100.00
64933;BME280;51446;53.850;10.662;2023-02-17T04:40:56;101207.59;;;8.22;100.00
64933;BME280;51446;53.850;10.662;2023-02-17T04:43:22;101199.13;;;8.29;100.00
64933;BME280;51446;53.850;10.662;2023-02-17T04:45:48;101199.34;;;8.36;100.00
64933;BME280;51446;53.850;10.662;2023-02-17T04:48:13;101192.47;;;8.39;100.00
64933;BME280;51446;53.850;10.662;2023-02-17T04:50:38;101190.63;;;8.37;100.00
64933;BME280;51446;53.850;10.662;2023-02-17T04:53:04;101174.25;;;8.42;100.00
64933;BME280;51446;53.850;10.662;2023-02-17T04:55:29;101179.31;;;8.36;100.00
64933;BME280;51446;53.850;10.662;2023-02-17T04:57:55;101170.06;;;8.46;100.00
64933;BME280;51446;53.850;10.662;2023-02-17T05:00:20;101160.56;;;8.49;100.00
64933;BME280;51446;53.850;10.662;2023-02-17T05:02:46;101157.97;;;8.49;100.00
64933;BME280;51446;53.850;10.662;2023-02-17T05:05:11;101146.59;;;8.47;100.00
64933;BME280;51446;53.850;10.662;2023-02-17T05:07:40;101137.06;;;8.49;100.00
64933;BME280;51446;53.850;10.662;2023-02-17T05:10:06;101133.59;;;8.50;100.00
64933;BME280;51446;53.850;10.662;2023-02-17T05:12:31;101132.03;;;8.56;100.00
64933;BME280;51446;53.850;10.662;2023-02-17T05:14:56;101130.25;;;8.55;100.00
64933;BME280;51446;53.850;10.662;2023-02-17T05:17:21;101128.56;;;8.57;100.00
64933;BME280;51446;53.850;10.662;2023-02-17T05:19:47;101118.34;;;8.64;100.00
64933;BME280;51446;53.850;10.662;2023-02-17T05:22:12;101113.84;;;8.60;100.00
64933;BME280;51446;53.850;10.662;2023-02-17T05:24:37;101112.91;;;8.58;100.00
64933;BME280;51446;53.850;10.662;2023-02-17T05:27:02;101105.78;;;8.53;100.00
64933;BME280;51446;53.850;10.662;2023-02-17T05:29:28;101110.38;;;8.61;100.00
64933;BME280;51446;53.850;10.662;2023-02-17T05:31:53;101106.16;;;8.65;100.00
64933;BME280;51446;53.850;10.662;2023-02-17T05:34:18;101108.84;;;8.68;100.00
64933;BME280;51446;53.850;10.662;2023-02-17T05:36:43;101101.66;;;8.61;100.00
64933;BME280;51446;53.850;10.662;2023-02-17T05:39:09;101095.69;;;8.65;100.00
64933;BME280;51446;53.850;10.662;2023-02-17T05:41:34;101102.63;;;8.63;100.00
64933;BME280;51446;53.850;10.662;2023-02-17T05:43:59;101098.34;;;8.66;100.00
64933;BME280;51446;53.850;10.662;2023-02-17T05:46:24;101100.88;;;8.63;100.00
64933;BME280;51446;53.850;10.662;2023-02-17T05:48:50;101099.38;;;8.72;100.00
64933;BME280;51446;53.850;10.662;2023-02-17T05:51:15;101103.81;;;8.76;100.00
64933;BME280;51446;53.850;10.662;2023-02-17T05:53:43;101094.94;;;8.69;100.00
64933;BME280;51446;53.850;10.662;2023-02-17T05:56:09;101087.88;;;8.66;100.00
64933;BME280;51446;53.850;10.662;2023-02-17T05:58:34;101095.03;;;8.72;100.00
64933;BME280;51446;53.850;10.662;2023-02-17T06:00:59;101082.69;;;8.68;100.00
64933;BME280;51446;53.850;10.662;2023-02-17T06:03:24;101085.44;;;8.73;100.00
64933;BME280;51446;53.850;10.662;2023-02-17T06:05:50;101081.63;;;8.61;100.00
64933;BME280;51446;53.850;10.662;2023-02-17T06:08:15;101070.66;;;8.73;100.00
64933;BME280;51446;53.850;10.662;2023-02-17T06:10:41;101080.28;;;8.76;100.00
64933;BME280;51446;53.850;10.662;2023-02-17T06:13:06;101065.22;;;8.67;100.00
64933;BME280;51446;53.850;10.662;2023-02-17T06:15:32;101059.28;;;8.73;100.00
64933;BME280;51446;53.850;10.662;2023-02-17T06:17:57;101055.13;;;8.79;100.00
64933;BME280;51446;53.850;10.662;2023-02-17T06:20:23;101054.97;;;8.73;100.00
64933;BME280;51446;53.850;10.662;2023-02-17T06:22:48;101048.00;;;8.74;100.00
64933;BME280;51446;53.850;10.662;2023-02-17T06:25:13;101046.22;;;8.73;100.00
64933;BME280;51446;53.850;10.662;2023-02-17T06:27:39;101045.34;;;8.72;100.00
64933;BME280;51446;53.850;10.662;2023-02-17T06:30:06;101042.00;;;8.78;100.00
64933;BME280;51446;53.850;10.662;2023-02-17T06:32:32;101030.81;;;8.82;100.00
64933;BME280;51446;53.850;10.662;2023-02-17T06:34:58;101022.03;;;8.81;100.00
64933;BME280;51446;53.850;10.662;2023-02-17T06:37:23;101009.75;;;8.77;100.00
64933;BME280;51446;53.850;10.662;2023-02-17T06:39:49;101009.13;;;8.86;100.00
64933;BME280;51446;53.850;10.662;2023-02-17T06:42:14;100997.69;;;8.82;100.00
64933;BME280;51446;53.850;10.662;2023-02-17T06:44:39;100999.31;;;8.77;100.00
64933;BME280;51446;53.850;10.662;2023-02-17T06:47:04;100993.09;;;8.74;100.00
64933;BME280;51446;53.850;10.662;2023-02-17T06:49:30;100991.63;;;8.83;100.00
64933;BME280;51446;53.850;10.662;2023-02-17T06:51:55;100987.19;;;8.81;100.00
64933;BME280;51446;53.850;10.662;2023-02-17T06:54:20;100994.97;;;8.79;100.00
64933;BME280;51446;53.850;10.662;2023-02-17T06:56:45;100987.94;;;8.77;100.00
64933;BME280;51446;53.850;10.662;2023-02-17T06:59:11;100985.69;;;8.91;100.00
64933;BME280;51446;53.850;10.662;2023-02-17T07:01:36;100977.69;;;8.84;100.00
64933;BME280;51446;53.850;10.662;2023-02-17T07:04:01;100981.13;;;8.82;100.00
64933;BME280;51446;53.850;10.662;2023-02-17T07:06:26;100984.56;;;8.81;100.00
64933;BME280;51446;53.850;10.662;2023-02-17T07:08:52;100976.72;;;8.81;100.00
64933;BME280;51446;53.850;10.662;2023-02-17T07:11:18;100970.44;;;8.74;100.00
64933;BME280;51446;53.850;10.662;2023-02-17T07:13:43;100966.06;;;8.73;100.00
64933;BME280;51446;53.850;10.662;2023-02-17T07:16:10;100982.03;;;8.84;100.00
64933;BME280;51446;53.850;10.662;2023-02-17T07:18:37;100981.06;;;8.80;100.00
64933;BME280;51446;53.850;10.662;2023-02-17T07:21:07;100960.94;;;8.78;100.00
64933;BME280;51446;53.850;10.662;2023-02-17T07:23:34;100962.69;;;8.77;100.00
64933;BME280;51446;53.850;10.662;2023-02-17T07:26:03;100959.28;;;8.81;100.00
64933;BME280;51446;53.850;10.662;2023-02-17T07:28:29;100947.97;;;8.81;100.00
64933;BME280;51446;53.850;10.662;2023-02-17T07:30:54;100943.63;;;8.83;100.00
64933;BME280;51446;53.850;10.662;2023-02-17T07:33:20;100934.06;;;8.83;100.00
64933;BME280;51446;53.850;10.662;2023-02-17T07:35:45;100922.03;;;8.90;100.00
64933;BME280;51446;53.850;10.662;2023-02-17T07:38:11;100930.44;;;8.78;100.00
64933;BME280;51446;53.850;10.662;2023-02-17T07:40:37;100937.56;;;8.84;100.00
64933;BME280;51446;53.850;10.662;2023-02-17T07:43:02;100932.19;;;8.78;100.00
64933;BME280;51446;53.850;10.662;2023-02-17T07:45:27;100928.69;;;8.77;100.00
64933;BME280;51446;53.850;10.662;2023-02-17T07:47:53;100933.94;;;8.77;100.00
64933;BME280;51446;53.850;10.662;2023-02-17T07:50:19;100930.38;;;8.75;100.00
64933;BME280;51446;53.850;10.662;2023-02-17T07:52:45;100934.78;;;8.76;100.00
64933;BME280;51446;53.850;10.662;2023-02-17T07:55:10;100928.69;;;8.77;100.00
64933;BME280;51446;53.850;10.662;2023-02-17T07:57:35;100924.41;;;8.81;100.00
64933;BME280;51446;53.850;10.662;2023-02-17T08:00:01;100918.25;;;8.77;100.00
64933;BME280;51446;53.850;10.662;2023-02-17T08:02:26;100920.16;;;8.84;100.00
64933;BME280;51446;53.850;10.662;2023-02-17T08:04:52;100911.50;;;8.87;100.00
64933;BME280;51446;53.850;10.662;2023-02-17T08:07:17;100910.53;;;8.83;100.00
64933;BME280;51446;53.850;10.662;2023-02-17T08:09:43;100905.47;;;8.90;100.00
64933;BME280;51446;53.850;10.662;2023-02-17T08:12:27;100902.84;;;8.90;100.00
64933;BME280;51446;53.850;10.662;2023-02-17T08:15:11;100890.56;;;8.87;100.00
64933;BME280;51446;53.850;10.662;2023-02-17T08:17:36;100890.63;;;8.90;100.00
64933;BME280;51446;53.850;10.662;2023-02-17T08:20:02;100893.34;;;8.93;100.00
64933;BME280;51446;53.850;10.662;2023-02-17T08:22:27;100882.94;;;8.95;100.00
64933;BME280;51446;53.850;10.662;2023-02-17T08:24:52;100874.19;;;8.94;100.00
64933;BME280;51446;53.850;10.662;2023-02-17T08:27:18;100883.75;;;8.94;100.00
64933;BME280;51446;53.850;10.662;2023-02-17T08:29:44;100868.88;;;8.91;100.00
64933;BME280;51446;53.850;10.662;2023-02-17T08:32:10;100857.66;;;8.95;100.00
64933;BME280;51446;53.850;10.662;2023-02-17T08:34:35;100856.94;;;9.02;100.00
64933;BME280;51446;53.850;10.662;2023-02-17T08:37:03;100857.00;;;9.06;100.00
64933;BME280;51446;53.850;10.662;2023-02-17T08:39:29;100843.84;;;9.01;100.00
64933;BME280;51446;53.850;10.662;2023-02-17T08:41:54;100827.31;;;9.02;100.00
64933;BME280;51446;53.850;10.662;2023-02-17T08:44:20;100831.59;;;9.00;100.00
64933;BME280;51446;53.850;10.662;2023-02-17T08:46:47;100834.31;;;9.05;100.00
64933;BME280;51446;53.850;10.662;2023-02-17T08:49:15;100828.00;;;8.95;100.00
64933;BME280;51446;53.850;10.662;2023-02-17T08:51:41;100811.53;;;8.99;100.00
64933;BME280;51446;53.850;10.662;2023-02-17T08:54:07;100819.28;;;8.96;100.00
64933;BME280;51446;53.850;10.662;2023-02-17T08:56:35;100814.00;;;8.93;100.00
64933;BME280;51446;53.850;10.662;2023-02-17T08:59:01;100814.09;;;8.97;100.00
64933;BME280;51446;53.850;10.662;2023-02-17T09:01:27;100826.25;;;8.95;100.00
64933;BME280;51446;53.850;10.662;2023-02-17T09:03:53;100816.97;;;9.08;100.00
64933;BME280;51446;53.850;10.662;2023-02-17T09:06:19;100816.91;;;9.05;100.00
64933;BME280;51446;53.850;10.662;2023-02-17T09:08:45;100814.19;;;9.00;100.00
64933;BME280;51446;53.850;10.662;2023-02-17T09:11:11;100810.69;;;9.01;100.00
64933;BME280;51446;53.850;10.662;2023-02-17T09:13:39;100806.34;;;9.00;100.00
64933;BME280;51446;53.850;10.662;2023-02-17T09:16:05;100787.28;;;9.06;100.00
64933;BME280;51446;53.850;10.662;2023-02-17T09:18:30;100789.78;;;9.01;100.00
64933;BME280;51446;53.850;10.662;2023-02-17T09:20:56;100792.59;;;9.09;100.00
64933;BME280;51446;53.850;10.662;2023-02-17T09:23:22;100797.50;;;8.95;100.00
64933;BME280;51446;53.850;10.662;2023-02-17T09:25:47;100802.06;;;9.06;100.00
64933;BME280;51446;53.850;10.662;2023-02-17T09:28:13;100790.69;;;9.02;100.00
64933;BME280;51446;53.850;10.662;2023-02-17T09:30:39;100799.31;;;8.98;100.00
64933;BME280;51446;53.850;10.662;2023-02-17T09:33:05;100792.53;;;9.08;100.00
64933;BME280;51446;53.850;10.662;2023-02-17T09:35:31;100783.72;;;9.04;100.00
64933;BME280;51446;53.850;10.662;2023-02-17T09:37:57;100789.97;;;9.09;100.00
64933;BME280;51446;53.850;10.662;2023-02-17T09:40:30;100771.50;;;9.03;100.00
64933;BME280;51446;53.850;10.662;2023-02-17T09:43:00;100744.41;;;8.99;100.00
64933;BME280;51446;53.850;10.662;2023-02-17T09:45:29;100750.66;;;9.06;100.00
64933;BME280;51446;53.850;10.662;2023-02-17T09:47:59;100741.09;;;9.08;100.00
64933;BME280;51446;53.850;10.662;2023-02-17T09:50:36;100755.22;;;9.16;100.00
64933;BME280;51446;53.850;10.662;2023-02-17T09:55:52;100762.81;;;9.04;100.00
64933;BME280;51446;53.850;10.662;2023-02-17T09:58:22;100759.34;;;9.05;100.00
64933;BME280;51446;53.850;10.662;2023-02-17T10:00:53;100757.56;;;9.04;100.00
64933;BME280;51446;53.850;10.662;2023-02-17T10:03:35;100763.03;;;9.13;100.00
64933;BME280;51446;53.850;10.662;2023-02-17T10:06:38;100747.25;;;9.12;100.00
64933;BME280;51446;53.850;10.662;2023-02-17T10:11:47;100744.09;;;9.27;100.00
64933;BME280;51446;53.850;10.662;2023-02-17T10:14:20;100750.19;;;9.26;100.00
64933;BME280;51446;53.850;10.662;2023-02-17T10:16:50;100738.81;;;9.24;100.00
64933;BME280;51446;53.850;10.662;2023-02-17T10:19:25;100732.72;;;9.25;100.00
64933;BME280;51446;53.850;10.662;2023-02-17T10:24:37;100718.81;;;9.27;100.00
64933;BME280;51446;53.850;10.662;2023-02-17T10:27:22;100721.44;;;9.27;100.00
64933;BME280;51446;53.850;10.662;2023-02-17T10:30:13;100725.84;;;9.30;100.00
64933;BME280;51446;53.850;10.662;2023-02-17T10:35:13;100719.00;;;9.35;100.00
64933;BME280;51446;53.850;10.662;2023-02-17T10:37:42;100718.09;;;9.34;100.00
64933;BME280;51446;53.850;10.662;2023-02-17T10:42:38;100724.22;;;9.35;100.00
64933;BME280;51446;53.850;10.662;2023-02-17T10:45:09;100725.03;;;9.32;100.00
64933;BME280;51446;53.850;10.662;2023-02-17T10:47:37;100727.16;;;9.52;100.00
64933;BME280;51446;53.850;10.662;2023-02-17T10:50:07;100713.09;;;9.47;100.00
64933;BME280;51446;53.850;10.662;2023-02-17T10:52:39;100713.03;;;9.42;100.00
64933;BME280;51446;53.850;10.662;2023-02-17T10:55:32;100713.09;;;9.47;100.00
64933;BME280;51446;53.850;10.662;2023-02-17T10:58:09;100706.19;;;9.52;100.00
64933;BME280;51446;53.850;10.662;2023-02-17T11:00:37;100703.59;;;9.53;100.00
64933;BME280;51446;53.850;10.662;2023-02-17T11:03:02;100698.28;;;9.49;100.00
64933;BME280;51446;53.850;10.662;2023-02-17T11:05:32;100694.78;;;9.47;100.00
64933;BME280;51446;53.850;10.662;2023-02-17T11:08:05;100700.09;;;9.51;100.00
64933;BME280;51446;53.850;10.662;2023-02-17T11:10:35;100698.31;;;9.50;100.00
64933;BME280;51446;53.850;10.662;2023-02-17T11:13:01;100703.66;;;9.55;100.00
64933;BME280;51446;53.850;10.662;2023-02-17T11:15:33;100692.28;;;9.54;100.00
64933;BME280;51446;53.850;10.662;2023-02-17T11:18:00;100687.97;;;9.55;100.00
64933;BME280;51446;53.850;10.662;2023-02-17T11:20:34;100681.09;;;9.63;100.00
64933;BME280;51446;53.850;10.662;2023-02-17T11:23:20;100670.56;;;9.59;100.00
64933;BME280;51446;53.850;10.662;2023-02-17T11:25:58;100671.53;;;9.64;100.00
64933;BME280;51446;53.850;10.662;2023-02-17T11:28:24;100669.81;;;9.66;100.00
64933;BME280;51446;53.850;10.662;2023-02-17T11:30:58;100660.34;;;9.72;100.00
64933;BME280;51446;53.850;10.662;2023-02-17T11:33:38;100663.00;;;9.76;100.00
64933;BME280;51446;53.850;10.662;2023-02-17T11:36:05;100663.81;;;9.73;100.00
64933;BME280;51446;53.850;10.662;2023-02-17T11:41:04;100660.22;;;9.68;100.00
64933;BME280;51446;53.850;10.662;2023-02-17T11:43:31;100648.94;;;9.70;100.00
64933;BME280;51446;53.850;10.662;2023-02-17T11:48:53;100655.19;;;9.77;100.00
64933;BME280;51446;53.850;10.662;2023-02-17T11:51:38;100644.75;;;9.80;100.00
64933;BME280;51446;53.850;10.662;2023-02-17T11:54:23;100658.06;;;9.93;100.00
64933;BME280;51446;53.850;10.662;2023-02-17T12:05:46;100646.94;;;10.07;100.00
64933;BME280;51446;53.850;10.662;2023-02-17T12:11:59;100633.84;;;10.07;100.00
64933;BME280;51446;53.850;10.662;2023-02-17T12:14:39;100626.03;;;10.12;100.00
64933;BME280;51446;53.850;10.662;2023-02-17T12:23:56;100628.53;;;10.03;100.00
64933;BME280;51446;53.850;10.662;2023-02-17T12:26:46;100626.75;;;10.02;100.00
64933;BME280;51446;53.850;10.662;2023-02-17T12:29:29;100628.56;;;10.04;100.00
64933;BME280;51446;53.850;10.662;2023-02-17T12:34:43;100636.47;;;10.09;100.00
64933;BME280;51446;53.850;10.662;2023-02-17T12:37:21;100645.97;;;10.02;100.00
64933;BME280;51446;53.850;10.662;2023-02-17T12:39:54;100632.84;;;10.01;100.00
64933;BME280;51446;53.850;10.662;2023-02-17T12:42:38;100648.59;;;10.02;100.00
64933;BME280;51446;53.850;10.662;2023-02-17T12:45:15;100638.22;;;10.07;100.00
64933;BME280;51446;53.850;10.662;2023-02-17T12:47:49;100627.72;;;10.07;100.00
64933;BME280;51446;53.850;10.662;2023-02-17T12:50:32;100639.19;;;10.15;100.00
64933;BME280;51446;53.850;10.662;2023-02-17T12:53:01;100625.13;;;10.09;100.00
64933;BME280;51446;53.850;10.662;2023-02-17T12:55:35;100626.97;;;10.14;100.00
64933;BME280;51446;53.850;10.662;2023-02-17T12:58:11;100620.84;;;10.15;100.00
64933;BME280;51446;53.850;10.662;2023-02-17T13:00:49;100619.19;;;10.20;100.00
64933;BME280;51446;53.850;10.662;2023-02-17T13:03:16;100619.16;;;10.19;100.00
64933;BME280;51446;53.850;10.662;2023-02-17T13:06:00;100626.97;;;10.16;100.00
64933;BME280;51446;53.850;10.662;2023-02-17T13:08:29;100622.59;;;10.15;100.00
64933;BME280;51446;53.850;10.662;2023-02-17T13:11:01;100634.84;;;10.16;100.00
64933;BME280;51446;53.850;10.662;2023-02-17T13:13:30;100624.31;;;10.13;100.00
64933;BME280;51446;53.850;10.662;2023-02-17T13:16:08;100617.41;;;10.18;100.00
64933;BME280;51446;53.850;10.662;2023-02-17T13:18:45;100620.06;;;10.22;100.00
64933;BME280;51446;53.850;10.662;2023-02-17T13:23:44;100637.50;;;10.19;100.00
64933;BME280;51446;53.850;10.662;2023-02-17T13:28:44;100619.19;;;10.20;100.00
64933;BME280;51446;53.850;10.662;2023-02-17T13:31:13;100611.31;;;10.19;100.00
64933;BME280;51446;53.850;10.662;2023-02-17T13:33:42;100614.78;;;10.18;100.00
64933;BME280;51446;53.850;10.662;2023-02-17T13:36:13;100619.19;;;10.22;100.00
64933;BME280;51446;53.850;10.662;2023-02-17T13:38:38;100608.78;;;10.27;100.00
64933;BME280;51446;53.850;10.662;2023-02-17T13:41:05;100623.63;;;10.24;100.00